createdAt,value
2023-02-11T00:01:17.258Z,8.00
2023-02-11T00:03:46.135Z,9.90
2023-02-11T00:06:15.249Z,10.33
2023-02-11T00:08:47.153Z,8.23
2023-02-11T00:11:16.824Z,9.27
2023-02-11T00:13:46.018Z,13.73
2023-02-11T00:16:16.507Z,10.67
2023-02-11T00:18:45.431Z,15.17
2023-02-11T00:21:14.760Z,7.90
2023-02-11T00:23:46.266Z,14.20
2023-02-11T00:26:16.865Z,12.07
2023-02-11T00:28:45.775Z,8.03
2023-02-11T00:31:14.575Z,11.43
2023-02-11T00:33:43.416Z,7.20
2023-02-11T00:42:12.981Z,10.77
2023-02-11T00:44:41.606Z,9.63
2023-02-11T00:47:10.472Z,13.77
2023-02-11T00:49:40.710Z,8.37
2023-02-11T00:52:09.234Z,9.33
2023-02-11T00:54:37.845Z,8.70
2023-02-11T00:57:06.067Z,9.90
2023-02-11T00:59:34.437Z,16.77
2023-02-11T01:02:02.698Z,12.73
2023-02-11T01:04:31.977Z,11.57
2023-02-11T01:07:00.615Z,8.27
2023-02-11T01:09:28.879Z,8.37
2023-02-11T01:11:57.369Z,10.80
2023-02-11T01:14:25.715Z,12.07
2023-02-11T01:16:54.129Z,12.87
2023-02-11T01:19:22.790Z,5.37
2023-02-11T01:21:50.583Z,10.80
2023-02-11T01:24:19.161Z,4.00
2023-02-11T01:26:47.542Z,9.50
2023-02-11T01:29:16.034Z,13.47
2023-02-11T01:31:44.337Z,7.30
2023-02-11T01:34:13.129Z,7.33
2023-02-11T01:36:41.837Z,8.47
2023-02-11T01:39:09.766Z,10.37
2023-02-11T01:41:38.747Z,5.37
2023-02-11T01:44:24.433Z,7.17
2023-02-11T01:46:53.024Z,6.53
2023-02-11T01:49:23.072Z,7.57
2023-02-11T01:54:38.279Z,8.25
2023-02-11T01:57:22.844Z,9.10
2023-02-11T01:59:55.657Z,7.17
2023-02-11T02:02:25.528Z,13.60
2023-02-11T02:04:58.108Z,13.70
2023-02-11T02:07:40.123Z,13.83
2023-02-11T02:10:09.729Z,12.63
2023-02-11T02:12:37.688Z,10.07
2023-02-11T02:15:22.862Z,10.27
2023-02-11T02:17:55.884Z,8.03
2023-02-11T02:20:33.998Z,5.93
2023-02-11T02:23:07.033Z,8.67
2023-02-11T02:25:55.060Z,11.07
2023-02-11T02:28:28.950Z,5.47
2023-02-11T02:30:59.121Z,9.17
2023-02-11T02:33:38.343Z,6.73
2023-02-11T02:36:11.422Z,5.40
2023-02-11T02:38:41.395Z,11.17
2023-02-11T02:41:20.096Z,6.13
2023-02-11T02:43:50.109Z,7.23
2023-02-11T02:46:20.162Z,5.70
2023-02-11T02:48:55.702Z,8.30
2023-02-11T02:51:28.362Z,6.33
2023-02-11T02:53:58.283Z,7.80
2023-02-11T02:56:43.237Z,5.57
2023-02-11T02:59:12.564Z,3.43
2023-02-11T03:01:42.447Z,7.93
2023-02-11T03:04:29.120Z,9.43
2023-02-11T03:07:02.142Z,7.53
2023-02-11T03:09:31.970Z,7.00
2023-02-11T03:12:02.202Z,9.50
2023-02-11T03:14:31.904Z,6.63
2023-02-11T03:17:01.991Z,7.10
2023-02-11T03:19:31.828Z,8.93
2023-02-11T03:22:00.808Z,8.20
2023-02-11T03:24:33.781Z,9.33
2023-02-11T03:27:03.829Z,7.43
2023-02-11T03:29:45.917Z,8.03
2023-02-11T03:32:22.786Z,9.60
2023-02-11T03:35:03.168Z,4.57
2023-02-11T03:37:42.300Z,8.07
2023-02-11T03:40:14.978Z,6.93
2023-02-11T03:42:47.834Z,4.63
2023-02-11T03:45:18.165Z,6.00
2023-02-11T03:50:14.851Z,5.97
2023-02-11T03:52:43.754Z,6.17
2023-02-11T03:55:16.089Z,3.13
2023-02-11T03:57:44.452Z,5.37
2023-02-11T04:00:18.237Z,4.23
2023-02-11T04:02:46.902Z,3.20
2023-02-11T04:05:17.320Z,7.13
2023-02-11T04:07:45.767Z,5.37
2023-02-11T04:10:14.348Z,6.97
2023-02-11T04:12:42.722Z,7.87
2023-02-11T04:15:11.197Z,6.17
2023-02-11T04:17:39.477Z,6.70
2023-02-11T04:20:07.970Z,8.03
2023-02-11T04:22:36.709Z,8.03
2023-02-11T04:25:05.413Z,7.07
2023-02-11T04:27:33.920Z,6.37
2023-02-11T04:30:02.314Z,14.07
2023-02-11T04:32:30.199Z,8.57
2023-02-11T04:34:58.666Z,8.90
2023-02-11T04:37:26.580Z,6.20
2023-02-11T04:39:54.516Z,9.87
2023-02-11T04:42:23.090Z,8.60
2023-02-11T04:44:51.589Z,9.37
2023-02-11T04:47:20.215Z,10.37
2023-02-11T04:49:49.149Z,9.13
2023-02-11T04:52:17.613Z,7.97
2023-02-11T04:54:45.611Z,8.60
2023-02-11T04:57:13.471Z,8.60
2023-02-11T04:59:41.548Z,9.10
2023-02-11T05:02:09.868Z,7.93
2023-02-11T05:04:38.505Z,5.57
2023-02-11T05:07:10.064Z,7.37
2023-02-11T05:09:38.503Z,11.13
2023-02-11T05:12:07.089Z,13.13
2023-02-11T05:14:35.604Z,8.73
2023-02-11T05:17:04.297Z,16.27
2023-02-11T05:19:32.793Z,13.03
2023-02-11T05:22:03.304Z,10.50
2023-02-11T05:24:32.382Z,7.17
2023-02-11T05:27:00.836Z,4.43
2023-02-11T05:29:29.430Z,9.70
2023-02-11T05:31:57.800Z,9.90
2023-02-11T05:34:26.128Z,11.00
2023-02-11T05:36:54.739Z,14.00
2023-02-11T05:39:23.380Z,16.73
2023-02-11T05:41:51.180Z,12.70
2023-02-11T05:44:19.061Z,13.10
2023-02-11T05:46:47.695Z,13.27
2023-02-11T05:49:17.446Z,14.37
2023-02-11T05:51:46.003Z,9.10
2023-02-11T05:54:14.692Z,10.90
2023-02-11T05:56:44.714Z,17.63
2023-02-11T05:59:13.865Z,14.93
2023-02-11T06:01:45.857Z,18.43
2023-02-11T06:04:14.697Z,16.97
2023-02-11T06:06:44.211Z,12.73
2023-02-11T06:09:12.709Z,17.60
2023-02-11T06:11:41.297Z,21.67
2023-02-11T06:14:10.531Z,23.37
2023-02-11T06:16:39.619Z,20.80
2023-02-11T06:19:07.653Z,21.73
2023-02-11T06:21:43.939Z,24.47
2023-02-11T06:26:34.040Z,18.70
2023-02-11T06:29:02.520Z,21.07
2023-02-11T06:31:31.114Z,15.17
2023-02-11T06:33:59.411Z,19.37
2023-02-11T06:36:27.853Z,26.70
2023-02-11T06:38:55.970Z,21.93
2023-02-11T06:41:24.509Z,17.70
2023-02-11T06:43:53.292Z,20.00
2023-02-11T06:46:21.218Z,9.87
2023-02-11T06:48:49.215Z,16.37
2023-02-11T06:51:18.119Z,13.73
2023-02-11T06:53:47.872Z,12.47
2023-02-11T06:56:17.227Z,16.70
2023-02-11T06:58:45.845Z,18.53
2023-02-11T07:01:15.132Z,16.80
2023-02-11T07:03:45.024Z,24.80
2023-02-11T07:06:14.632Z,21.10
2023-02-11T07:08:43.449Z,17.93
2023-02-11T07:11:16.747Z,13.87
2023-02-11T07:13:45.335Z,18.93
2023-02-11T07:16:15.300Z,21.47
2023-02-11T07:18:47.874Z,20.57
2023-02-11T07:21:17.530Z,26.93
2023-02-11T07:23:45.901Z,37.17
2023-02-11T07:26:15.922Z,27.07
2023-02-11T07:28:44.555Z,27.43
2023-02-11T07:31:17.345Z,26.20
2023-02-11T07:33:47.680Z,24.13
2023-02-11T07:36:16.912Z,22.00
2023-02-11T07:38:44.915Z,19.07
2023-02-11T07:41:14.672Z,17.57
2023-02-11T07:43:42.957Z,22.90
2023-02-11T07:46:15.432Z,22.27
2023-02-11T07:48:44.111Z,24.47
2023-02-11T07:51:14.030Z,23.73
2023-02-11T07:53:42.872Z,20.63
2023-02-11T07:56:11.944Z,23.83
2023-02-11T07:58:42.290Z,21.63
2023-02-11T08:01:12.258Z,24.47
2023-02-11T08:03:41.986Z,22.60
2023-02-11T08:06:14.705Z,25.93
2023-02-11T08:08:43.662Z,26.53
2023-02-11T08:11:13.442Z,29.20
2023-02-11T08:13:41.937Z,38.77
2023-02-11T08:16:10.683Z,20.93
2023-02-11T08:18:39.126Z,21.23
2023-02-11T08:21:08.339Z,21.70
2023-02-11T08:23:40.605Z,19.20
2023-02-11T08:26:10.713Z,17.97
2023-02-11T08:28:42.763Z,21.53
2023-02-11T08:31:12.921Z,17.37
2023-02-11T08:33:41.888Z,15.57
2023-02-11T08:36:14.549Z,17.30
2023-02-11T08:38:42.931Z,17.87
2023-02-11T08:41:11.741Z,17.53
2023-02-11T08:43:43.396Z,18.13
2023-02-11T08:46:13.474Z,16.00
2023-02-11T08:48:42.507Z,16.27
2023-02-11T08:51:11.942Z,23.17
2023-02-11T08:53:40.968Z,18.40
2023-02-11T08:56:11.135Z,17.60
2023-02-11T08:58:39.203Z,19.03
2023-02-11T09:01:11.872Z,19.43
2023-02-11T09:03:40.646Z,18.73
2023-02-11T09:06:10.066Z,16.73
2023-02-11T09:08:39.177Z,15.57
2023-02-11T09:11:07.763Z,15.67
2023-02-11T09:13:36.888Z,15.77
2023-02-11T09:16:05.906Z,16.63
2023-02-11T09:18:34.742Z,15.80
2023-02-11T09:21:04.423Z,16.00
2023-02-11T09:23:35.087Z,16.93
2023-02-11T09:26:09.373Z,17.00
2023-02-11T09:28:38.162Z,15.17
2023-02-11T09:31:10.909Z,15.87
2023-02-11T09:33:40.284Z,16.57
2023-02-11T09:36:09.649Z,16.47
2023-02-11T09:38:38.834Z,16.67
2023-02-11T09:41:09.280Z,14.37
2023-02-11T09:43:40.567Z,16.67
2023-02-11T09:46:10.268Z,15.27
2023-02-11T09:51:07.003Z,12.93
2023-02-11T09:53:39.208Z,14.23
2023-02-11T09:56:09.314Z,15.07
2023-02-11T09:58:39.033Z,14.67
2023-02-11T10:01:25.913Z,14.10
2023-02-11T10:03:59.226Z,15.30
2023-02-11T10:06:39.343Z,13.67
2023-02-11T10:09:18.709Z,14.43
2023-02-11T10:11:48.879Z,15.50
2023-02-11T10:14:19.396Z,13.60
2023-02-11T10:17:05.680Z,14.73
2023-02-11T10:19:38.776Z,14.83
2023-02-11T10:22:09.281Z,12.37
2023-02-11T10:24:38.136Z,12.03
2023-02-11T10:27:08.419Z,11.50
2023-02-11T10:29:47.130Z,11.30
2023-02-11T10:32:16.680Z,11.47
2023-02-11T10:34:47.377Z,12.63
2023-02-11T10:37:16.475Z,11.33
2023-02-11T10:39:45.663Z,11.17
2023-02-11T10:42:14.782Z,13.00
2023-02-11T10:44:44.887Z,13.40
2023-02-11T10:47:18.034Z,12.40
2023-02-11T10:49:47.781Z,13.30
2023-02-11T10:52:21.195Z,13.67
2023-02-11T10:55:06.939Z,10.90
2023-02-11T10:57:37.289Z,11.90
2023-02-11T11:00:07.313Z,11.30
2023-02-11T11:02:39.577Z,9.80
2023-02-11T11:05:09.996Z,9.70
2023-02-11T11:07:38.320Z,10.87
2023-02-11T11:10:08.899Z,11.33
2023-02-11T11:12:48.206Z,11.83
2023-02-11T11:15:19.288Z,16.43
2023-02-11T11:17:48.062Z,12.27
2023-02-11T11:20:24.304Z,14.77
2023-02-11T11:22:53.954Z,14.07
2023-02-11T11:25:23.860Z,12.63
2023-02-11T11:30:19.811Z,9.53
2023-02-11T11:32:48.500Z,11.17
2023-02-11T11:35:24.357Z,10.43
2023-02-11T11:37:56.626Z,8.77
2023-02-11T11:40:26.365Z,10.23
2023-02-11T11:45:26.704Z,7.50
2023-02-11T11:48:02.906Z,8.97
2023-02-11T11:50:41.702Z,9.13
2023-02-11T11:53:23.651Z,9.13
2023-02-11T11:55:59.859Z,8.93
2023-02-11T11:58:29.619Z,8.70
2023-02-11T12:03:29.809Z,8.20
2023-02-11T12:06:08.155Z,8.97
2023-02-11T12:08:48.747Z,8.40
2023-02-11T12:11:19.025Z,7.07
2023-02-11T12:13:52.365Z,8.43
2023-02-11T12:16:26.510Z,6.80
2023-02-11T12:18:56.620Z,8.57
2023-02-11T12:21:34.322Z,7.63
2023-02-11T12:24:04.609Z,7.77
2023-02-11T12:26:35.407Z,8.30
2023-02-11T12:29:23.398Z,8.07
2023-02-11T12:31:58.231Z,8.03
2023-02-11T12:34:40.865Z,8.90
2023-02-11T12:37:24.395Z,8.50
2023-02-11T12:39:55.245Z,8.27
2023-02-11T12:42:44.325Z,6.87
2023-02-11T12:45:15.420Z,8.37
2023-02-11T12:48:02.442Z,7.37
2023-02-11T12:50:33.502Z,7.47
2023-02-11T12:53:04.642Z,7.87
2023-02-11T12:55:35.910Z,8.00
2023-02-11T12:58:06.492Z,7.23
2023-02-11T13:00:46.161Z,8.77
2023-02-11T13:03:18.985Z,20.70
2023-02-11T13:05:51.339Z,13.87
2023-02-11T13:08:25.322Z,13.23
2023-02-11T13:10:54.858Z,10.43
2023-02-11T13:13:24.411Z,10.63
2023-02-11T13:15:57.832Z,8.70
2023-02-11T13:18:29.167Z,9.80
2023-02-11T13:21:18.582Z,9.17
2023-02-11T13:23:48.869Z,9.53
2023-02-11T13:26:25.034Z,9.33
2023-02-11T13:28:55.966Z,9.00
2023-02-11T13:31:26.465Z,7.80
2023-02-11T13:33:55.384Z,7.73
2023-02-11T13:36:25.095Z,8.33
2023-02-11T13:38:57.776Z,8.53
2023-02-11T13:41:28.358Z,8.10
2023-02-11T13:44:01.218Z,8.17
2023-02-11T13:46:31.754Z,7.97
2023-02-11T13:48:59.910Z,7.70
2023-02-11T13:51:42.587Z,8.07
2023-02-11T13:54:13.849Z,7.63
2023-02-11T13:56:46.815Z,7.73
2023-02-11T13:59:29.199Z,7.70
2023-02-11T14:02:20.679Z,13.60
2023-02-11T14:05:23.932Z,19.47
2023-02-11T14:08:24.485Z,15.10
2023-02-11T14:10:54.121Z,8.17
2023-02-11T14:13:26.326Z,8.17
2023-02-11T14:16:11.965Z,7.07
2023-02-11T14:18:41.888Z,6.67
2023-02-11T14:21:12.098Z,6.87
2023-02-11T14:23:41.355Z,6.40
2023-02-11T14:26:23.647Z,6.77
2023-02-11T14:28:53.055Z,5.87
2023-02-11T14:31:38.585Z,7.60
2023-02-11T14:34:08.292Z,7.70
2023-02-11T14:36:44.856Z,7.50
2023-02-11T14:39:20.551Z,8.80
2023-02-11T14:41:52.888Z,7.83
2023-02-11T14:44:23.212Z,8.73
2023-02-11T14:46:54.464Z,9.47
2023-02-11T14:49:28.270Z,7.83
2023-02-11T14:52:01.677Z,7.90
2023-02-11T14:54:30.485Z,8.20
2023-02-11T14:57:12.853Z,7.67
2023-02-11T14:59:42.313Z,8.60
2023-02-11T15:02:24.850Z,9.07
2023-02-11T15:04:53.867Z,9.10
2023-02-11T15:07:23.348Z,8.73
2023-02-11T15:09:52.566Z,7.07
2023-02-11T15:12:23.672Z,8.83
2023-02-11T15:14:55.268Z,15.63
2023-02-11T15:17:26.416Z,14.23
2023-02-11T15:19:57.209Z,10.87
2023-02-11T15:22:27.892Z,8.33
2023-02-11T15:25:01.234Z,8.67
2023-02-11T15:27:29.972Z,7.73
2023-02-11T15:29:58.650Z,8.43
2023-02-11T15:32:27.599Z,9.03
2023-02-11T15:34:57.862Z,8.63
2023-02-11T15:37:27.813Z,7.17
2023-02-11T15:39:56.640Z,8.40
2023-02-11T15:42:35.808Z,8.83
2023-02-11T15:45:11.521Z,7.93
2023-02-11T15:47:41.606Z,10.23
2023-02-11T15:50:11.725Z,8.80
2023-02-11T15:52:42.475Z,10.40
2023-02-11T15:55:13.050Z,10.33
2023-02-11T15:57:43.463Z,11.83
2023-02-11T16:00:19.631Z,11.87
2023-02-11T16:02:49.993Z,10.60
2023-02-11T16:05:32.382Z,13.07
2023-02-11T16:08:01.681Z,13.57
2023-02-11T16:10:35.697Z,12.47
2023-02-11T16:13:12.064Z,12.73
2023-02-11T16:15:52.088Z,12.77
2023-02-11T16:18:30.995Z,13.07
2023-02-11T16:20:53.630Z,12.00
2023-02-11T16:25:50.399Z,12.95
2023-02-11T16:28:18.938Z,12.50
2023-02-11T16:30:48.804Z,12.23
2023-02-11T16:33:16.911Z,13.17
2023-02-11T16:35:46.685Z,12.70
2023-02-11T16:38:15.038Z,13.73
2023-02-11T16:40:44.712Z,13.20
2023-02-11T16:43:14.119Z,11.90
2023-02-11T16:45:44.494Z,13.27
2023-02-11T16:48:14.962Z,13.20
2023-02-11T16:50:44.452Z,12.60
2023-02-11T16:53:13.411Z,13.07
2023-02-11T16:55:41.915Z,12.00
2023-02-11T16:58:10.435Z,14.20
2023-02-11T17:00:39.586Z,11.00
2023-02-11T17:03:10.675Z,12.43
2023-02-11T17:05:54.321Z,12.53
2023-02-11T17:08:11.002Z,12.07
2023-02-11T17:13:06.846Z,14.10
2023-02-11T17:15:35.401Z,12.80
2023-02-11T17:18:04.219Z,12.37
2023-02-11T17:20:32.972Z,12.17
2023-02-11T17:23:01.591Z,14.03
2023-02-11T17:25:30.089Z,13.43
2023-02-11T17:27:58.259Z,12.73
2023-02-11T17:30:26.940Z,12.50
2023-02-11T17:32:55.531Z,12.40
2023-02-11T17:35:24.038Z,13.47
2023-02-11T17:37:52.797Z,11.93
2023-02-11T17:40:21.544Z,13.10
2023-02-11T17:42:50.464Z,13.17
2023-02-11T17:45:21.177Z,11.73
2023-02-11T17:47:50.802Z,13.53
2023-02-11T17:50:19.658Z,11.43
2023-02-11T17:52:48.598Z,12.80
2023-02-11T17:55:17.393Z,13.30
2023-02-11T17:57:45.374Z,13.67
2023-02-11T18:00:14.246Z,13.60
2023-02-11T18:02:42.504Z,12.30
2023-02-11T18:05:11.796Z,10.13
2023-02-11T18:07:40.400Z,12.57
2023-02-11T18:10:09.976Z,14.07
2023-02-11T18:12:38.998Z,14.37
2023-02-11T18:15:07.295Z,12.63
2023-02-11T18:17:36.075Z,14.50
2023-02-11T18:20:05.105Z,13.17
2023-02-11T18:22:35.618Z,12.90
2023-02-11T18:25:03.652Z,10.80
2023-02-11T18:27:32.644Z,9.97
2023-02-11T18:30:01.476Z,11.90
2023-02-11T18:32:30.227Z,9.53
2023-02-11T18:34:58.661Z,13.10
2023-02-11T18:37:26.973Z,11.67
2023-02-11T18:39:55.670Z,11.37
2023-02-11T18:42:24.578Z,11.87
2023-02-11T18:44:53.465Z,11.67
2023-02-11T18:47:22.151Z,12.53
2023-02-11T18:49:51.254Z,13.70
2023-02-11T18:52:20.028Z,13.17
2023-02-11T18:54:48.115Z,12.83
2023-02-11T18:57:16.586Z,12.80
2023-02-11T18:59:45.396Z,10.60
2023-02-11T19:02:13.957Z,9.07
2023-02-11T19:04:42.746Z,11.10
2023-02-11T19:07:12.018Z,13.70
2023-02-11T19:09:40.737Z,12.90
2023-02-11T19:12:10.724Z,10.80
2023-02-11T19:14:39.327Z,10.27
2023-02-11T19:17:08.984Z,10.70
2023-02-11T19:19:37.111Z,12.97
2023-02-11T19:22:10.713Z,10.87
2023-02-11T19:24:39.576Z,11.90
2023-02-11T19:27:07.693Z,10.63
2023-02-11T19:29:35.639Z,12.30
2023-02-11T19:32:06.350Z,12.87
2023-02-11T19:34:36.205Z,13.97
2023-02-11T19:37:05.085Z,13.27
2023-02-11T19:39:32.958Z,11.83
2023-02-11T19:42:01.544Z,13.50
2023-02-11T19:44:30.179Z,11.30
2023-02-11T19:46:59.119Z,11.73
2023-02-11T19:49:27.909Z,13.73
2023-02-11T19:51:58.805Z,13.90
2023-02-11T19:54:29.529Z,13.43
2023-02-11T19:56:58.681Z,12.47
2023-02-11T19:59:27.361Z,11.60
2023-02-11T20:01:55.965Z,10.20
2023-02-11T20:04:25.564Z,9.90
2023-02-11T20:06:54.241Z,9.53
2023-02-11T20:09:23.239Z,11.70
2023-02-11T20:11:52.026Z,17.43
2023-02-11T20:14:20.644Z,10.93
2023-02-11T20:16:50.310Z,9.87
2023-02-11T20:19:20.193Z,9.80
2023-02-11T20:21:50.647Z,23.90
2023-02-11T20:24:19.139Z,25.80
2023-02-11T20:26:48.964Z,17.90
2023-02-11T20:29:18.460Z,18.97
2023-02-11T20:31:47.489Z,15.67
2023-02-11T20:34:18.256Z,16.43
2023-02-11T20:36:48.598Z,18.33
2023-02-11T20:39:18.245Z,15.33
2023-02-11T20:41:47.087Z,14.90
2023-02-11T20:44:15.493Z,15.43
2023-02-11T20:46:46.782Z,14.97
2023-02-11T20:49:16.358Z,15.57
2023-02-11T20:51:44.718Z,15.03
2023-02-11T20:54:14.435Z,20.63
2023-02-11T20:56:44.503Z,14.57
2023-02-11T20:59:14.265Z,15.57
2023-02-11T21:01:43.561Z,13.23
2023-02-11T21:04:13.348Z,14.77
2023-02-11T21:06:43.571Z,12.83
2023-02-11T21:09:13.412Z,18.40
2023-02-11T21:11:42.185Z,14.53
2023-02-11T21:14:11.860Z,12.10
2023-02-11T21:16:40.415Z,12.80
2023-02-11T21:19:09.082Z,14.07
2023-02-11T21:21:37.920Z,13.07
2023-02-11T21:24:11.388Z,12.33
2023-02-11T21:26:40.611Z,12.07
2023-02-11T21:29:09.926Z,10.77
2023-02-11T21:31:38.770Z,14.37
2023-02-11T21:34:08.376Z,13.67
2023-02-11T21:36:36.502Z,11.57
2023-02-11T21:39:06.274Z,13.47
2023-02-11T21:41:35.455Z,15.03
2023-02-11T21:44:04.039Z,12.73
2023-02-11T21:46:32.860Z,13.73
2023-02-11T21:49:01.062Z,14.53
2023-02-11T21:51:29.661Z,15.30
2023-02-11T21:53:59.701Z,15.53
2023-02-11T21:58:58.624Z,9.38
2023-02-11T22:01:29.234Z,9.67
2023-02-11T22:03:58.218Z,21.37
2023-02-11T22:06:28.191Z,19.20
2023-02-11T22:08:56.520Z,19.33
2023-02-11T22:11:26.249Z,17.93
2023-02-11T22:13:55.953Z,11.70
2023-02-11T22:16:25.375Z,9.87
2023-02-11T22:18:54.349Z,11.53
2023-02-11T22:21:23.716Z,12.67
2023-02-11T22:23:52.740Z,10.80
2023-02-11T22:26:22.028Z,11.37
2023-02-11T22:28:51.123Z,9.40
2023-02-11T22:31:24.595Z,9.23
2023-02-11T22:33:53.591Z,8.60
2023-02-11T22:36:23.752Z,10.10
2023-02-11T22:38:52.378Z,10.30
2023-02-11T22:41:20.966Z,10.53
2023-02-11T22:43:49.134Z,9.73
2023-02-11T22:46:18.111Z,10.67
2023-02-11T22:48:46.692Z,11.07
2023-02-11T22:51:16.474Z,11.43
2023-02-11T22:53:45.109Z,11.13
2023-02-11T22:56:15.518Z,11.57
2023-02-11T22:58:44.603Z,10.13
2023-02-11T23:01:13.819Z,9.60
2023-02-11T23:03:42.364Z,9.63
2023-02-11T23:06:12.691Z,9.10
2023-02-11T23:08:41.836Z,7.80
2023-02-11T23:11:11.875Z,8.87
2023-02-11T23:16:08.377Z,6.97
2023-02-11T23:18:37.651Z,7.20
2023-02-11T23:21:07.332Z,7.97
2023-02-11T23:23:36.027Z,7.70
2023-02-11T23:26:04.841Z,8.87
2023-02-11T23:28:33.003Z,9.30
2023-02-11T23:31:01.944Z,10.20
2023-02-11T23:33:30.766Z,9.30
2023-02-11T23:35:59.171Z,10.70
2023-02-11T23:38:28.169Z,10.13
2023-02-11T23:40:56.235Z,10.00
2023-02-11T23:43:24.842Z,11.33
2023-02-11T23:45:54.070Z,10.77
2023-02-11T23:48:22.479Z,9.97
2023-02-11T23:50:50.693Z,10.87
2023-02-11T23:53:19.427Z,10.63
2023-02-11T23:55:48.014Z,12.10
2023-02-11T23:58:16.037Z,10.43
